createdAt,value
2019-04-10T00:02:10.476Z,61.50
2019-04-10T00:05:15.870Z,61.40
2019-04-10T00:08:20.291Z,61.20
2019-04-10T00:11:24.920Z,61.20
2019-04-10T00:14:29.406Z,61.20
2019-04-10T00:17:34.029Z,61.10
2019-04-10T00:20:38.504Z,61.20
2019-04-10T00:23:43.689Z,61.20
2019-04-10T00:26:48.100Z,61.20
2019-04-10T00:29:52.451Z,61.30
2019-04-10T00:32:56.768Z,61.40
2019-04-10T00:36:01.628Z,61.40
2019-04-10T00:39:08.550Z,61.40
2019-04-10T00:42:12.955Z,61.40
2019-04-10T00:45:17.516Z,61.50
2019-04-10T00:48:21.988Z,61.50
2019-04-10T00:51:26.339Z,61.50
2019-04-10T00:54:30.959Z,61.40
2019-04-10T00:57:35.375Z,61.40
2019-04-10T01:00:39.755Z,61.40
2019-04-10T01:03:44.155Z,61.40
2019-04-10T01:06:48.641Z,61.50
2019-04-10T01:09:53.414Z,61.50
2019-04-10T01:12:58.725Z,61.50
2019-04-10T01:16:03.248Z,61.60
2019-04-10T01:19:07.909Z,61.70
2019-04-10T01:22:12.268Z,61.60
2019-04-10T01:25:16.692Z,61.70
2019-04-10T01:28:20.987Z,61.80
2019-04-10T01:31:25.383Z,61.60
2019-04-10T01:34:29.722Z,61.90
2019-04-10T01:37:47.639Z,61.80
2019-04-10T01:40:40.115Z,61.90
2019-04-10T01:43:44.479Z,61.90
2019-04-10T01:46:48.771Z,61.80
2019-04-10T01:49:53.745Z,61.80
2019-04-10T01:52:58.084Z,62.00
2019-04-10T01:56:03.087Z,61.90
2019-04-10T01:59:07.740Z,61.90
2019-04-10T02:02:27.320Z,62.10
2019-04-10T02:05:33.823Z,62.20
2019-04-10T02:08:38.246Z,62.00
2019-04-10T02:11:42.636Z,62.10
2019-04-10T02:14:46.999Z,62.10
2019-04-10T02:17:51.251Z,62.00
2019-04-10T02:20:55.709Z,61.90
2019-04-10T02:24:00.906Z,61.80
2019-04-10T02:27:05.777Z,62.10
2019-04-10T02:30:12.770Z,62.00
2019-04-10T02:33:17.864Z,62.20
2019-04-10T02:36:23.514Z,62.00
2019-04-10T02:39:36.165Z,62.20
2019-04-10T02:42:34.444Z,62.20
2019-04-10T02:45:40.378Z,62.10
2019-04-10T02:48:45.336Z,62.10
2019-04-10T02:51:51.787Z,62.30
2019-04-10T02:54:57.690Z,62.10
2019-04-10T02:58:02.579Z,62.10
2019-04-10T03:01:07.120Z,62.10
2019-04-10T03:04:13.275Z,62.10
2019-04-10T03:07:17.799Z,63.10
2019-04-10T03:10:30.045Z,62.20
2019-04-10T03:13:29.345Z,62.30
2019-04-10T03:16:35.379Z,62.40
2019-04-10T03:19:39.926Z,62.30
2019-04-10T03:22:45.133Z,62.50
2019-04-10T03:25:49.578Z,62.30
2019-04-10T03:28:54.252Z,62.40
2019-04-10T03:32:01.915Z,62.40
2019-04-10T03:35:14.600Z,62.30
2019-04-10T03:38:19.126Z,62.30
2019-04-10T03:41:24.124Z,62.40
2019-04-10T03:44:28.575Z,62.20
2019-04-10T03:47:33.469Z,62.20
2019-04-10T03:50:37.839Z,62.30
2019-04-10T03:53:42.524Z,62.30
2019-04-10T03:56:47.854Z,62.30
2019-04-10T03:59:52.363Z,62.20
2019-04-10T04:02:56.748Z,62.30
2019-04-10T04:06:01.622Z,62.30
2019-04-10T04:09:11.602Z,62.10
2019-04-10T04:12:14.759Z,62.20
2019-04-10T04:15:19.919Z,62.10
2019-04-10T04:18:24.878Z,62.10
2019-04-10T04:21:29.947Z,62.10
2019-04-10T04:24:34.429Z,62.20
2019-04-10T04:27:39.847Z,62.30
2019-04-10T04:30:44.256Z,62.10
2019-04-10T04:33:48.993Z,62.10
2019-04-10T04:36:53.623Z,62.00
2019-04-10T04:39:58.371Z,62.10
2019-04-10T04:43:03.669Z,62.80
2019-04-10T04:46:08.062Z,62.00
2019-04-10T04:49:13.590Z,61.90
2019-04-10T04:52:18.298Z,62.00
2019-04-10T04:55:22.920Z,61.80
2019-04-10T04:58:28.262Z,61.80
2019-04-10T05:01:32.879Z,61.70
2019-04-10T05:04:37.497Z,61.80
2019-04-10T05:07:41.895Z,61.70
2019-04-10T05:10:47.381Z,61.70
2019-04-10T05:13:51.808Z,61.70
2019-04-10T05:16:56.148Z,61.70
2019-04-10T05:20:00.839Z,61.60
2019-04-10T05:23:06.124Z,61.60
2019-04-10T05:26:10.663Z,61.70
2019-04-10T05:29:15.366Z,61.50
2019-04-10T05:32:19.760Z,61.40
2019-04-10T05:35:24.166Z,61.40
2019-04-10T05:38:29.129Z,61.20
2019-04-10T05:41:33.620Z,61.20
2019-04-10T05:44:38.219Z,62.00
2019-04-10T05:47:42.579Z,61.30
2019-04-10T05:50:54.870Z,60.90
2019-04-10T05:53:55.277Z,61.00
2019-04-10T05:56:59.071Z,60.70
2019-04-10T06:00:05.267Z,60.60
2019-04-10T06:03:09.596Z,60.40
2019-04-10T06:06:14.532Z,60.30
2019-04-10T06:09:38.603Z,59.90
2019-04-10T06:12:43.016Z,60.00
2019-04-10T06:15:47.486Z,59.80
2019-04-10T06:18:51.876Z,59.80
2019-04-10T06:21:56.593Z,59.50
2019-04-10T06:25:00.986Z,59.70
2019-04-10T06:28:05.439Z,59.50
2019-04-10T06:31:09.762Z,59.50
2019-04-10T06:34:16.118Z,59.40
2019-04-10T06:37:20.158Z,59.30
2019-04-10T06:40:26.322Z,59.30
2019-04-10T06:43:30.830Z,59.30
2019-04-10T06:46:37.544Z,59.50
2019-04-10T06:49:41.412Z,59.10
2019-04-10T06:52:45.819Z,59.20
2019-04-10T06:55:50.144Z,59.30
2019-04-10T06:58:54.581Z,59.10
2019-04-10T07:02:12.891Z,59.60
2019-04-10T07:05:08.567Z,58.80
2019-04-10T07:08:16.529Z,58.50
2019-04-10T07:11:20.075Z,58.70
2019-04-10T07:14:24.578Z,59.40
2019-04-10T07:17:29.257Z,59.80
2019-04-10T07:20:33.798Z,59.50
2019-04-10T07:23:38.708Z,59.80
2019-04-10T07:26:46.302Z,59.60
2019-04-10T07:29:52.360Z,59.30
2019-04-10T07:32:55.750Z,59.00
2019-04-10T07:36:04.297Z,59.10
2019-04-10T07:39:08.095Z,59.00
2019-04-10T07:42:25.275Z,58.80
2019-04-10T07:45:18.800Z,58.50
2019-04-10T07:48:23.114Z,59.00
2019-04-10T07:51:27.670Z,58.30
2019-04-10T07:54:33.092Z,58.30
2019-04-10T07:57:38.505Z,58.30
2019-04-10T08:00:43.040Z,58.30
2019-04-10T08:03:47.923Z,58.30
2019-04-10T08:06:52.379Z,58.20
2019-04-10T08:09:56.738Z,58.00
2019-04-10T08:13:02.287Z,57.50
2019-04-10T08:16:06.760Z,57.30
2019-04-10T08:19:12.341Z,57.20
2019-04-10T08:22:17.888Z,57.40
2019-04-10T08:25:22.825Z,57.10
2019-04-10T08:28:30.488Z,57.20
2019-04-10T08:31:33.278Z,57.40
2019-04-10T08:34:38.579Z,57.20
2019-04-10T08:37:43.102Z,57.10
2019-04-10T08:40:48.215Z,56.80
2019-04-10T08:43:52.654Z,56.80
2019-04-10T08:46:58.121Z,56.70
2019-04-10T08:50:03.587Z,55.50
2019-04-10T08:53:08.043Z,55.10
2019-04-10T08:56:12.994Z,55.20
2019-04-10T08:59:17.378Z,54.70
2019-04-10T09:02:22.152Z,54.70
2019-04-10T09:05:26.511Z,54.60
2019-04-10T09:08:30.959Z,54.50
2019-04-10T09:11:35.468Z,54.40
2019-04-10T09:14:39.815Z,54.40
2019-04-10T09:17:44.113Z,54.20
2019-04-10T09:20:49.041Z,53.70
2019-04-10T09:23:56.221Z,53.60
2019-04-10T09:27:00.535Z,53.70
2019-04-10T09:30:06.718Z,53.60
2019-04-10T09:33:20.986Z,53.20
2019-04-10T09:36:18.228Z,53.10
2019-04-10T09:39:23.319Z,53.30
2019-04-10T09:42:27.837Z,53.00
2019-04-10T09:45:35.030Z,53.10
2019-04-10T09:48:40.072Z,53.10
2019-04-10T09:51:44.615Z,53.00
2019-04-10T09:54:49.007Z,52.90
2019-04-10T09:57:53.941Z,52.70
2019-04-10T10:01:01.411Z,52.60
2019-04-10T10:04:06.708Z,52.70
2019-04-10T10:07:12.204Z,52.90
2019-04-10T10:10:17.278Z,52.80
2019-04-10T10:13:23.986Z,52.50
2019-04-10T10:16:30.293Z,52.50
2019-04-10T10:19:34.419Z,52.40
2019-04-10T10:22:39.105Z,52.50
2019-04-10T10:25:43.741Z,52.20
2019-04-10T10:28:48.173Z,51.70
2019-04-10T10:31:53.597Z,52.40
2019-04-10T10:34:58.847Z,52.40
2019-04-10T10:38:03.971Z,52.40
2019-04-10T10:41:09.526Z,52.00
2019-04-10T10:44:15.082Z,52.20
2019-04-10T10:47:22.263Z,51.90
2019-04-10T10:50:26.678Z,51.70
2019-04-10T10:53:31.098Z,51.70
2019-04-10T10:56:36.239Z,51.80
2019-04-10T10:59:41.796Z,51.50
2019-04-10T11:02:46.191Z,51.50
2019-04-10T11:05:50.768Z,51.50
2019-04-10T11:08:55.552Z,51.10
2019-04-10T11:12:00.160Z,51.30
2019-04-10T11:15:05.080Z,51.20
2019-04-10T11:18:10.307Z,51.00
2019-04-10T11:21:14.900Z,50.90
2019-04-10T11:24:19.630Z,50.70
2019-04-10T11:27:25.235Z,50.40
2019-04-10T11:30:32.486Z,50.20
2019-04-10T11:33:37.279Z,50.40
2019-04-10T11:36:42.514Z,50.50
2019-04-10T11:39:50.121Z,50.20
2019-04-10T11:42:54.232Z,50.10
2019-04-10T11:46:02.625Z,50.00
2019-04-10T11:49:07.491Z,49.60
2019-04-10T11:52:14.508Z,49.70
2019-04-10T11:55:20.993Z,49.40
2019-04-10T11:58:27.110Z,49.50
2019-04-10T12:01:30.955Z,49.50
2019-04-10T12:04:45.380Z,49.60
2019-04-10T12:08:09.068Z,49.80
2019-04-10T12:13:54.376Z,49.80
2019-04-10T12:16:58.921Z,50.00
2019-04-10T12:20:03.476Z,50.00
2019-04-10T12:23:08.464Z,49.30
2019-04-10T12:26:13.806Z,49.90
2019-04-10T12:29:18.400Z,50.10
2019-04-10T12:32:24.984Z,50.50
2019-04-10T12:35:29.774Z,50.10
2019-04-10T12:38:34.240Z,50.30
2019-04-10T12:41:41.620Z,49.90
2019-04-10T12:44:47.123Z,49.70
2019-04-10T12:47:52.450Z,49.40
2019-04-10T12:50:57.121Z,49.00
2019-04-10T12:54:02.509Z,48.70
2019-04-10T12:57:06.967Z,48.80
2019-04-10T13:00:14.211Z,48.80
2019-04-10T13:03:18.820Z,48.40
2019-04-10T13:06:24.210Z,48.50
2019-04-10T13:09:29.628Z,48.20
2019-04-10T14:10:31.302Z,48.10
2019-04-10T14:13:39.815Z,49.00
2019-04-10T14:17:07.320Z,48.70
2019-04-10T14:20:13.150Z,49.10
2019-04-10T14:23:26.549Z,49.30
2019-04-10T14:27:05.801Z,49.40
2019-04-10T14:30:16.264Z,49.60
2019-04-10T14:33:23.694Z,49.60
2019-04-10T14:36:28.184Z,50.30
2019-04-10T14:39:33.492Z,49.80
2019-04-10T14:42:38.391Z,49.80
2019-04-10T14:45:43.730Z,49.80
2019-04-10T14:48:48.842Z,50.20
2019-04-10T14:51:53.206Z,50.20
2019-04-10T14:54:57.577Z,50.00
2019-04-10T14:58:01.842Z,50.30
2019-04-10T15:01:08.384Z,50.30
2019-04-10T15:04:12.949Z,50.50
2019-04-10T15:07:17.785Z,50.60
2019-04-10T15:10:22.115Z,50.50
2019-04-10T15:13:26.846Z,50.10
2019-04-10T15:16:32.051Z,50.60
2019-04-10T15:19:36.487Z,50.30
2019-04-10T15:22:40.728Z,50.40
2019-04-10T15:25:45.115Z,50.00
2019-04-10T15:28:49.958Z,50.10
2019-04-10T15:31:54.409Z,50.20
2019-04-10T15:34:58.684Z,50.20
2019-04-10T15:38:06.433Z,50.10
2019-04-10T15:41:10.844Z,50.20
2019-04-10T15:44:16.300Z,50.40
2019-04-10T15:47:23.495Z,50.40
2019-04-10T15:50:28.391Z,50.50
2019-04-10T15:53:32.858Z,50.50
2019-04-10T15:56:38.131Z,50.70
2019-04-10T15:59:44.188Z,50.90
2019-04-10T16:02:48.908Z,51.00
2019-04-10T16:05:53.583Z,50.90
2019-04-10T16:08:58.840Z,51.10
2019-04-10T16:12:14.601Z,50.90
2019-04-10T16:15:19.331Z,50.90
2019-04-10T16:18:24.829Z,50.90
2019-04-10T16:21:29.710Z,51.10
2019-04-10T16:24:34.099Z,51.30
2019-04-10T16:27:39.147Z,51.60
2019-04-10T16:30:43.552Z,51.80
2019-04-10T16:33:48.376Z,51.50
2019-04-10T16:36:52.884Z,51.50
2019-04-10T16:40:03.242Z,51.50
2019-04-10T16:43:04.367Z,51.40
2019-04-10T16:46:09.085Z,51.50
2019-04-10T16:49:13.502Z,51.70
2019-04-10T16:52:17.811Z,51.70
2019-04-10T16:55:22.779Z,51.60
2019-04-10T16:58:27.613Z,51.90
2019-04-10T17:01:32.985Z,51.80
2019-04-10T17:04:37.475Z,52.00
2019-04-10T17:07:41.797Z,52.20
2019-04-10T17:10:48.300Z,52.20
2019-04-10T17:13:52.928Z,52.40
2019-04-10T17:16:57.851Z,52.50
2019-04-10T17:20:02.468Z,52.60
2019-04-10T17:23:08.101Z,52.70
2019-04-10T17:26:12.980Z,52.70
2019-04-10T17:29:17.733Z,52.90
2019-04-10T17:32:22.102Z,52.80
2019-04-10T17:35:27.567Z,53.10
2019-04-10T17:38:32.044Z,53.20
2019-04-10T17:41:36.386Z,53.30
2019-04-10T17:44:42.779Z,53.20
2019-04-10T17:47:47.276Z,53.20
2019-04-10T17:50:53.146Z,53.20
2019-04-10T17:53:57.998Z,53.10
2019-04-10T17:57:02.571Z,53.30
2019-04-10T18:00:24.341Z,53.30
2019-04-10T18:03:39.678Z,53.30
2019-04-10T18:06:35.266Z,53.20
2019-04-10T18:09:40.993Z,53.30
2019-04-10T18:12:46.070Z,53.30
2019-04-10T18:15:54.129Z,54.10
2019-04-10T18:19:00.121Z,53.50
2019-04-10T18:22:05.361Z,53.60
2019-04-10T18:25:10.031Z,53.60
2019-04-10T18:28:14.375Z,53.70
2019-04-10T18:31:18.787Z,53.80
2019-04-10T18:34:23.182Z,53.80
2019-04-10T18:37:28.593Z,53.90
2019-04-10T18:40:33.603Z,53.80
2019-04-10T18:43:37.884Z,53.90
2019-04-10T18:46:42.059Z,54.00
2019-04-10T18:49:47.306Z,55.00
2019-04-10T18:52:51.881Z,55.00
2019-04-10T18:55:56.599Z,55.00
2019-04-10T18:59:07.972Z,55.10
2019-04-10T19:02:30.457Z,55.20
2019-04-10T19:05:38.377Z,55.20
2019-04-10T19:08:43.941Z,55.30
2019-04-10T19:11:48.494Z,55.40
2019-04-10T19:14:52.895Z,55.40
2019-04-10T19:17:57.567Z,55.40
2019-04-10T19:21:05.355Z,55.40
2019-04-10T19:24:09.911Z,55.40
2019-04-10T19:27:14.382Z,55.40
2019-04-10T19:30:37.398Z,55.50
2019-04-10T19:33:41.886Z,55.60
2019-04-10T19:36:46.253Z,55.80
2019-04-10T19:39:50.890Z,55.90
2019-04-10T19:42:55.255Z,56.10
2019-04-10T19:46:00.607Z,56.10
2019-04-10T19:49:06.054Z,55.90
2019-04-10T19:52:14.117Z,55.70
2019-04-10T19:55:19.758Z,55.60
2019-04-10T19:58:26.023Z,55.40
2019-04-10T20:01:31.431Z,55.40
2019-04-10T20:04:36.841Z,55.30
2019-04-10T20:07:41.222Z,55.10
2019-04-10T20:10:45.752Z,55.00
2019-04-10T20:13:51.204Z,55.10
2019-04-10T20:16:55.701Z,55.10
2019-04-10T20:20:00.063Z,55.00
2019-04-10T20:23:04.721Z,55.00
2019-04-10T20:26:09.246Z,55.00
2019-04-10T20:29:15.072Z,55.00
2019-04-10T20:32:19.713Z,55.00
2019-04-10T20:35:26.481Z,55.00
2019-04-10T20:38:32.395Z,55.10
2019-04-10T20:41:47.788Z,54.90
2019-04-10T20:44:45.172Z,54.90
2019-04-10T20:47:50.358Z,54.90
2019-04-10T20:50:54.615Z,54.90
2019-04-10T20:53:58.849Z,54.90
2019-04-10T20:57:04.435Z,54.90
2019-04-10T21:00:10.930Z,54.90
2019-04-10T21:03:15.525Z,54.90
2019-04-10T21:06:20.988Z,54.90
2019-04-10T21:09:25.799Z,54.90
2019-04-10T21:12:30.199Z,54.90
2019-04-10T21:15:35.394Z,54.80
2019-04-10T21:18:42.478Z,55.00
2019-04-10T21:21:46.913Z,55.00
2019-04-10T21:24:52.083Z,55.00
2019-04-10T21:27:57.830Z,55.10
2019-04-10T21:31:20.159Z,55.30
2019-04-10T21:34:32.539Z,55.20
2019-04-10T21:37:38.103Z,55.30
2019-04-10T21:40:43.317Z,55.40
2019-04-10T21:43:50.852Z,55.40
2019-04-10T21:46:55.767Z,55.50
2019-04-10T21:50:00.519Z,55.60
2019-04-10T21:53:06.014Z,55.60
2019-04-10T21:56:10.514Z,55.60
2019-04-10T21:59:16.355Z,55.80
2019-04-10T22:02:21.838Z,55.90
2019-04-10T22:05:28.308Z,56.10
2019-04-10T22:08:39.372Z,56.10
2019-04-10T22:11:45.606Z,56.10
2019-04-10T22:14:50.411Z,56.10
2019-04-10T22:17:56.628Z,56.20
2019-04-10T22:21:01.454Z,56.20
2019-04-10T22:24:07.154Z,56.30
2019-04-10T22:27:12.130Z,56.20
2019-04-10T22:30:17.580Z,56.10
2019-04-10T22:33:22.374Z,56.10
2019-04-10T22:36:29.019Z,56.10
2019-04-10T22:39:35.873Z,56.20
2019-04-10T22:42:46.056Z,56.20
2019-04-10T22:45:46.758Z,56.20
2019-04-10T22:48:51.582Z,56.30
2019-04-10T22:51:56.424Z,56.10
2019-04-10T22:55:01.416Z,55.90
2019-04-10T22:58:06.126Z,55.90
2019-04-10T23:01:13.129Z,56.10
2019-04-10T23:04:17.978Z,56.00
2019-04-10T23:07:22.633Z,56.00
2019-04-10T23:10:27.300Z,56.10
2019-04-10T23:13:32.091Z,56.20
2019-04-10T23:16:37.883Z,56.40
2019-04-10T23:19:42.564Z,56.40
2019-04-10T23:22:48.732Z,56.50
2019-04-10T23:25:53.535Z,56.60
2019-04-10T23:29:02.076Z,56.80
2019-04-10T23:32:06.267Z,56.70
2019-04-10T23:35:11.598Z,56.70
2019-04-10T23:38:17.421Z,56.70
2019-04-10T23:41:23.254Z,56.70
2019-04-10T23:44:29.175Z,56.70
2019-04-10T23:47:34.082Z,56.70
2019-04-10T23:50:40.704Z,57.30
2019-04-10T23:53:45.499Z,56.50
2019-04-10T23:56:52.580Z,56.30
2019-04-10T23:59:59.306Z,56.40
